sensor_id;sensor_type;location;lat;lon;timestamp;temperature;humidity
35692;DHT22;26978;44.830;-0.674;2022-12-18T00:01:47;2.70;99.90
35692;DHT22;26978;44.830;-0.674;2022-12-18T00:04:20;2.70;99.90
35692;DHT22;26978;44.830;-0.674;2022-12-18T00:06:46;2.70;99.90
35692;DHT22;26978;44.830;-0.674;2022-12-18T00:09:12;2.70;99.90
35692;DHT22;26978;44.830;-0.674;2022-12-18T00:11:37;2.70;99.90
35692;DHT22;26978;44.830;-0.674;2022-12-18T00:14:05;2.60;99.90
35692;DHT22;26978;44.830;-0.674;2022-12-18T00:16:31;2.60;99.90
35692;DHT22;26978;44.830;-0.674;2022-12-18T00:18:58;2.60;99.90
35692;DHT22;26978;44.830;-0.674;2022-12-18T00:21:24;2.60;99.90
35692;DHT22;26978;44.830;-0.674;2022-12-18T00:23:50;2.50;99.90
35692;DHT22;26978;44.830;-0.674;2022-12-18T00:26:17;2.60;99.90
35692;DHT22;26978;44.830;-0.674;2022-12-18T00:28:43;2.50;99.90
35692;DHT22;26978;44.830;-0.674;2022-12-18T00:31:10;2.50;99.90
35692;DHT22;26978;44.830;-0.674;2022-12-18T00:33:37;2.50;99.90
35692;DHT22;26978;44.830;-0.674;2022-12-18T00:36:04;2.50;99.90
35692;DHT22;26978;44.830;-0.674;2022-12-18T00:38:29;2.40;99.90
35692;DHT22;26978;44.830;-0.674;2022-12-18T00:40:55;2.40;99.90
35692;DHT22;26978;44.830;-0.674;2022-12-18T00:43:20;2.50;99.90
35692;DHT22;26978;44.830;-0.674;2022-12-18T00:45:46;2.50;99.90
35692;DHT22;26978;44.830;-0.674;2022-12-18T00:48:12;2.50;99.90
35692;DHT22;26978;44.830;-0.674;2022-12-18T00:50:37;2.50;99.90
35692;DHT22;26978;44.830;-0.674;2022-12-18T00:53:03;2.50;99.90
35692;DHT22;26978;44.830;-0.674;2022-12-18T00:55:29;2.50;99.90
35692;DHT22;26978;44.830;-0.674;2022-12-18T00:57:55;2.40;99.90
35692;DHT22;26978;44.830;-0.674;2022-12-18T01:00:21;2.40;99.90
35692;DHT22;26978;44.830;-0.674;2022-12-18T01:02:47;2.40;99.90
35692;DHT22;26978;44.830;-0.674;2022-12-18T01:05:13;2.40;99.90
35692;DHT22;26978;44.830;-0.674;2022-12-18T01:07:39;2.40;99.90
35692;DHT22;26978;44.830;-0.674;2022-12-18T01:10:05;2.40;99.90
35692;DHT22;26978;44.830;-0.674;2022-12-18T01:12:31;2.40;99.90
35692;DHT22;26978;44.830;-0.674;2022-12-18T01:14:56;2.50;99.90
35692;DHT22;26978;44.830;-0.674;2022-12-18T01:17:22;2.40;99.90
35692;DHT22;26978;44.830;-0.674;2022-12-18T01:19:48;2.40;99.90
35692;DHT22;26978;44.830;-0.674;2022-12-18T01:22:14;2.40;99.90
35692;DHT22;26978;44.830;-0.674;2022-12-18T01:24:40;2.50;99.90
35692;DHT22;26978;44.830;-0.674;2022-12-18T01:27:05;2.50;99.90
35692;DHT22;26978;44.830;-0.674;2022-12-18T01:29:31;2.50;99.90
35692;DHT22;26978;44.830;-0.674;2022-12-18T01:31:57;2.40;99.90
35692;DHT22;26978;44.830;-0.674;2022-12-18T01:34:23;2.50;99.90
35692;DHT22;26978;44.830;-0.674;2022-12-18T01:36:48;2.50;99.90
35692;DHT22;26978;44.830;-0.674;2022-12-18T01:39:14;2.40;99.90
35692;DHT22;26978;44.830;-0.674;2022-12-18T01:41:40;2.40;99.90
35692;DHT22;26978;44.830;-0.674;2022-12-18T01:47:08;2.50;99.90
35692;DHT22;26978;44.830;-0.674;2022-12-18T01:49:33;2.40;99.90
35692;DHT22;26978;44.830;-0.674;2022-12-18T01:51:59;2.40;99.90
35692;DHT22;26978;44.830;-0.674;2022-12-18T01:54:24;2.40;99.90
35692;DHT22;26978;44.830;-0.674;2022-12-18T01:56:53;2.40;99.90
35692;DHT22;26978;44.830;-0.674;2022-12-18T01:59:19;2.50;99.90
35692;DHT22;26978;44.830;-0.674;2022-12-18T02:01:44;2.40;99.90
35692;DHT22;26978;44.830;-0.674;2022-12-18T02:04:23;2.40;99.90
35692;DHT22;26978;44.830;-0.674;2022-12-18T02:06:51;2.40;99.90
35692;DHT22;26978;44.830;-0.674;2022-12-18T02:09:19;2.40;99.90
35692;DHT22;26978;44.830;-0.674;2022-12-18T02:14:18;2.40;99.90
35692;DHT22;26978;44.830;-0.674;2022-12-18T02:19:32;2.40;99.90
35692;DHT22;26978;44.830;-0.674;2022-12-18T02:22:06;2.40;99.90
35692;DHT22;26978;44.830;-0.674;2022-12-18T02:27:04;2.40;99.90
35692;DHT22;26978;44.830;-0.674;2022-12-18T02:29:38;2.50;99.90
35692;DHT22;26978;44.830;-0.674;2022-12-18T02:32:06;2.50;99.90
35692;DHT22;26978;44.830;-0.674;2022-12-18T02:34:34;2.40;99.90
35692;DHT22;26978;44.830;-0.674;2022-12-18T02:37:03;2.30;99.90
35692;DHT22;26978;44.830;-0.674;2022-12-18T02:39:30;2.30;99.90
35692;DHT22;26978;44.830;-0.674;2022-12-18T02:41:56;2.30;99.90
35692;DHT22;26978;44.830;-0.674;2022-12-18T02:44:23;2.30;99.90
35692;DHT22;26978;44.830;-0.674;2022-12-18T02:46:49;2.30;99.90
35692;DHT22;26978;44.830;-0.674;2022-12-18T02:56:54;2.40;99.90
35692;DHT22;26978;44.830;-0.674;2022-12-18T02:59:27;2.40;99.90
35692;DHT22;26978;44.830;-0.674;2022-12-18T03:01:57;2.40;99.90
35692;DHT22;26978;44.830;-0.674;2022-12-18T03:04:29;2.40;99.90
35692;DHT22;26978;44.830;-0.674;2022-12-18T03:06:57;2.40;99.90
35692;DHT22;26978;44.830;-0.674;2022-12-18T03:09:32;2.40;99.90
35692;DHT22;26978;44.830;-0.674;2022-12-18T03:12:00;2.40;99.90
35692;DHT22;26978;44.830;-0.674;2022-12-18T03:14:45;2.30;99.90
35692;DHT22;26978;44.830;-0.674;2022-12-18T03:17:15;2.30;99.90
35692;DHT22;26978;44.830;-0.674;2022-12-18T03:19:41;2.30;99.90
35692;DHT22;26978;44.830;-0.674;2022-12-18T03:22:08;2.30;99.90
35692;DHT22;26978;44.830;-0.674;2022-12-18T03:24:35;2.30;99.90
35692;DHT22;26978;44.830;-0.674;2022-12-18T03:27:05;2.40;99.90
35692;DHT22;26978;44.830;-0.674;2022-12-18T03:29:42;2.40;99.90
35692;DHT22;26978;44.830;-0.674;2022-12-18T03:32:14;2.30;99.90
35692;DHT22;26978;44.830;-0.674;2022-12-18T03:34:41;2.30;99.90
35692;DHT22;26978;44.830;-0.674;2022-12-18T03:37:08;2.40;99.90
35692;DHT22;26978;44.830;-0.674;2022-12-18T03:39:34;2.30;99.90
35692;DHT22;26978;44.830;-0.674;2022-12-18T03:42:02;2.30;99.90
35692;DHT22;26978;44.830;-0.674;2022-12-18T03:44:30;2.40;99.90
35692;DHT22;26978;44.830;-0.674;2022-12-18T03:47:08;2.40;99.90
35692;DHT22;26978;44.830;-0.674;2022-12-18T03:52:36;2.30;99.90
35692;DHT22;26978;44.830;-0.674;2022-12-18T03:55:03;2.30;99.90
35692;DHT22;26978;44.830;-0.674;2022-12-18T03:57:31;2.30;99.90
35692;DHT22;26978;44.830;-0.674;2022-12-18T04:00:03;2.20;99.90
35692;DHT22;26978;44.830;-0.674;2022-12-18T04:02:29;2.20;99.90
35692;DHT22;26978;44.830;-0.674;2022-12-18T04:04:56;2.20;99.90
35692;DHT22;26978;44.830;-0.674;2022-12-18T04:07:22;2.30;99.90
35692;DHT22;26978;44.830;-0.674;2022-12-18T04:09:48;2.20;99.90
35692;DHT22;26978;44.830;-0.674;2022-12-18T04:12:15;2.30;99.90
35692;DHT22;26978;44.830;-0.674;2022-12-18T04:14:41;2.30;99.90
35692;DHT22;26978;44.830;-0.674;2022-12-18T04:17:06;2.30;99.90
35692;DHT22;26978;44.830;-0.674;2022-12-18T04:19:32;2.30;99.90
35692;DHT22;26978;44.830;-0.674;2022-12-18T04:21:58;2.40;99.90
35692;DHT22;26978;44.830;-0.674;2022-12-18T04:24:23;2.40;99.90
35692;DHT22;26978;44.830;-0.674;2022-12-18T04:26:49;2.40;99.90
35692;DHT22;26978;44.830;-0.674;2022-12-18T04:29:15;2.40;99.90
35692;DHT22;26978;44.830;-0.674;2022-12-18T04:31:40;2.40;99.90
35692;DHT22;26978;44.830;-0.674;2022-12-18T04:34:06;2.40;99.90
35692;DHT22;26978;44.830;-0.674;2022-12-18T04:36:32;2.40;99.90
35692;DHT22;26978;44.830;-0.674;2022-12-18T04:38:58;2.40;99.90
35692;DHT22;26978;44.830;-0.674;2022-12-18T04:41:23;2.40;99.90
35692;DHT22;26978;44.830;-0.674;2022-12-18T04:43:49;2.40;99.90
35692;DHT22;26978;44.830;-0.674;2022-12-18T04:46:16;2.40;99.90
35692;DHT22;26978;44.830;-0.674;2022-12-18T04:48:42;2.40;99.90
35692;DHT22;26978;44.830;-0.674;2022-12-18T04:51:10;2.40;99.90
35692;DHT22;26978;44.830;-0.674;2022-12-18T04:53:35;2.40;99.90
35692;DHT22;26978;44.830;-0.674;2022-12-18T04:56:04;2.40;99.90
35692;DHT22;26978;44.830;-0.674;2022-12-18T04:58:29;2.40;99.90
35692;DHT22;26978;44.830;-0.674;2022-12-18T05:00:55;2.40;99.90
35692;DHT22;26978;44.830;-0.674;2022-12-18T05:03:21;2.40;99.90
35692;DHT22;26978;44.830;-0.674;2022-12-18T05:05:49;2.40;99.90
35692;DHT22;26978;44.830;-0.674;2022-12-18T05:08:15;2.40;99.90
35692;DHT22;26978;44.830;-0.674;2022-12-18T05:10:41;2.40;99.90
35692;DHT22;26978;44.830;-0.674;2022-12-18T05:13:06;2.40;99.90
35692;DHT22;26978;44.830;-0.674;2022-12-18T05:15:32;2.40;99.90
35692;DHT22;26978;44.830;-0.674;2022-12-18T05:17:58;2.40;99.90
35692;DHT22;26978;44.830;-0.674;2022-12-18T05:20:24;2.50;99.90
35692;DHT22;26978;44.830;-0.674;2022-12-18T05:22:50;2.40;99.90
35692;DHT22;26978;44.830;-0.674;2022-12-18T05:25:16;2.50;99.90
35692;DHT22;26978;44.830;-0.674;2022-12-18T05:27:41;2.50;99.90
35692;DHT22;26978;44.830;-0.674;2022-12-18T05:30:07;2.60;99.90
35692;DHT22;26978;44.830;-0.674;2022-12-18T05:32:33;2.60;99.90
35692;DHT22;26978;44.830;-0.674;2022-12-18T05:34:59;2.50;99.90
35692;DHT22;26978;44.830;-0.674;2022-12-18T05:37:24;2.60;99.90
35692;DHT22;26978;44.830;-0.674;2022-12-18T05:39:50;2.60;99.90
35692;DHT22;26978;44.830;-0.674;2022-12-18T05:42:15;2.60;99.90
35692;DHT22;26978;44.830;-0.674;2022-12-18T05:44:41;2.60;99.90
35692;DHT22;26978;44.830;-0.674;2022-12-18T05:47:07;2.60;99.90
35692;DHT22;26978;44.830;-0.674;2022-12-18T05:49:32;2.70;99.90
35692;DHT22;26978;44.830;-0.674;2022-12-18T05:51:58;2.70;99.90
35692;DHT22;26978;44.830;-0.674;2022-12-18T05:54:23;2.80;99.90
35692;DHT22;26978;44.830;-0.674;2022-12-18T05:56:49;2.80;99.90
35692;DHT22;26978;44.830;-0.674;2022-12-18T05:59:14;2.80;99.90
35692;DHT22;26978;44.830;-0.674;2022-12-18T06:01:40;2.70;99.90
35692;DHT22;26978;44.830;-0.674;2022-12-18T06:04:05;2.80;99.90
35692;DHT22;26978;44.830;-0.674;2022-12-18T06:06:31;2.90;99.90
35692;DHT22;26978;44.830;-0.674;2022-12-18T06:08:57;2.80;99.90
35692;DHT22;26978;44.830;-0.674;2022-12-18T06:11:23;2.80;99.90
35692;DHT22;26978;44.830;-0.674;2022-12-18T06:13:49;2.90;99.90
35692;DHT22;26978;44.830;-0.674;2022-12-18T06:16:15;2.90;99.90
35692;DHT22;26978;44.830;-0.674;2022-12-18T06:18:40;2.90;99.90
35692;DHT22;26978;44.830;-0.674;2022-12-18T06:21:06;2.90;99.90
35692;DHT22;26978;44.830;-0.674;2022-12-18T06:23:32;2.90;99.90
35692;DHT22;26978;44.830;-0.674;2022-12-18T06:25:57;3.00;99.90
35692;DHT22;26978;44.830;-0.674;2022-12-18T06:28:23;3.00;99.90
35692;DHT22;26978;44.830;-0.674;2022-12-18T06:30:49;3.10;99.90
35692;DHT22;26978;44.830;-0.674;2022-12-18T06:33:15;3.10;99.90
35692;DHT22;26978;44.830;-0.674;2022-12-18T06:35:40;3.10;99.90
35692;DHT22;26978;44.830;-0.674;2022-12-18T06:38:06;3.10;99.90
35692;DHT22;26978;44.830;-0.674;2022-12-18T06:40:32;3.20;99.90
35692;DHT22;26978;44.830;-0.674;2022-12-18T06:42:57;3.20;99.90
35692;DHT22;26978;44.830;-0.674;2022-12-18T06:45:23;3.20;99.90
35692;DHT22;26978;44.830;-0.674;2022-12-18T06:47:49;3.20;99.90
35692;DHT22;26978;44.830;-0.674;2022-12-18T06:50:15;3.30;99.90
35692;DHT22;26978;44.830;-0.674;2022-12-18T06:52:40;3.30;99.90
35692;DHT22;26978;44.830;-0.674;2022-12-18T06:55:08;3.30;99.90
35692;DHT22;26978;44.830;-0.674;2022-12-18T06:57:33;3.30;99.90
35692;DHT22;26978;44.830;-0.674;2022-12-18T06:59:59;3.40;99.90
35692;DHT22;26978;44.830;-0.674;2022-12-18T07:02:25;3.40;99.90
35692;DHT22;26978;44.830;-0.674;2022-12-18T07:04:50;3.40;99.90
35692;DHT22;26978;44.830;-0.674;2022-12-18T07:07:16;3.40;99.90
35692;DHT22;26978;44.830;-0.674;2022-12-18T07:09:42;3.50;99.90
35692;DHT22;26978;44.830;-0.674;2022-12-18T07:12:07;3.50;99.90
35692;DHT22;26978;44.830;-0.674;2022-12-18T07:14:33;3.50;99.90
35692;DHT22;26978;44.830;-0.674;2022-12-18T07:16:59;3.50;99.90
35692;DHT22;26978;44.830;-0.674;2022-12-18T07:19:24;3.50;99.90
35692;DHT22;26978;44.830;-0.674;2022-12-18T07:21:50;3.60;99.90
35692;DHT22;26978;44.830;-0.674;2022-12-18T07:24:16;3.60;99.90
35692;DHT22;26978;44.830;-0.674;2022-12-18T07:26:41;3.60;99.90
35692;DHT22;26978;44.830;-0.674;2022-12-18T07:29:07;3.60;99.90
35692;DHT22;26978;44.830;-0.674;2022-12-18T07:31:33;3.70;99.90
35692;DHT22;26978;44.830;-0.674;2022-12-18T07:33:59;3.70;99.90
35692;DHT22;26978;44.830;-0.674;2022-12-18T07:36:25;3.80;99.90
35692;DHT22;26978;44.830;-0.674;2022-12-18T07:38:50;3.70;99.90
35692;DHT22;26978;44.830;-0.674;2022-12-18T07:41:17;3.80;99.90
35692;DHT22;26978;44.830;-0.674;2022-12-18T07:43:43;3.80;99.90
35692;DHT22;26978;44.830;-0.674;2022-12-18T07:46:10;3.90;99.90
35692;DHT22;26978;44.830;-0.674;2022-12-18T07:48:36;3.90;99.90
35692;DHT22;26978;44.830;-0.674;2022-12-18T07:51:05;3.90;99.90
35692;DHT22;26978;44.830;-0.674;2022-12-18T07:53:31;4.00;99.90
35692;DHT22;26978;44.830;-0.674;2022-12-18T07:55:58;4.00;99.90
35692;DHT22;26978;44.830;-0.674;2022-12-18T07:58:24;4.10;99.90
35692;DHT22;26978;44.830;-0.674;2022-12-18T08:00:50;4.10;99.90
35692;DHT22;26978;44.830;-0.674;2022-12-18T08:03:15;4.10;99.90
35692;DHT22;26978;44.830;-0.674;2022-12-18T08:05:41;4.10;99.90
35692;DHT22;26978;44.830;-0.674;2022-12-18T08:08:06;4.20;99.90
35692;DHT22;26978;44.830;-0.674;2022-12-18T08:10:32;4.20;99.90
35692;DHT22;26978;44.830;-0.674;2022-12-18T08:12:57;4.20;99.90
35692;DHT22;26978;44.830;-0.674;2022-12-18T08:15:24;4.30;99.90
35692;DHT22;26978;44.830;-0.674;2022-12-18T08:17:50;4.30;99.90
35692;DHT22;26978;44.830;-0.674;2022-12-18T08:20:15;4.40;99.90
35692;DHT22;26978;44.830;-0.674;2022-12-18T08:22:42;4.40;99.90
35692;DHT22;26978;44.830;-0.674;2022-12-18T08:25:08;4.40;99.90
35692;DHT22;26978;44.830;-0.674;2022-12-18T08:27:33;4.40;99.90
35692;DHT22;26978;44.830;-0.674;2022-12-18T08:29:59;4.40;99.90
35692;DHT22;26978;44.830;-0.674;2022-12-18T08:32:25;4.50;99.90
35692;DHT22;26978;44.830;-0.674;2022-12-18T08:34:51;4.50;99.90
35692;DHT22;26978;44.830;-0.674;2022-12-18T08:37:16;4.50;99.90
35692;DHT22;26978;44.830;-0.674;2022-12-18T08:39:42;4.50;99.90
35692;DHT22;26978;44.830;-0.674;2022-12-18T08:42:08;4.60;99.90
35692;DHT22;26978;44.830;-0.674;2022-12-18T08:44:52;4.60;99.90
35692;DHT22;26978;44.830;-0.674;2022-12-18T08:47:18;4.70;99.90
35692;DHT22;26978;44.830;-0.674;2022-12-18T08:49:43;4.70;99.90
35692;DHT22;26978;44.830;-0.674;2022-12-18T08:52:09;4.70;99.90
35692;DHT22;26978;44.830;-0.674;2022-12-18T08:54:34;4.80;99.90
35692;DHT22;26978;44.830;-0.674;2022-12-18T08:57:02;4.80;99.90
35692;DHT22;26978;44.830;-0.674;2022-12-18T08:59:27;4.80;99.90
35692;DHT22;26978;44.830;-0.674;2022-12-18T09:01:53;4.80;99.90
35692;DHT22;26978;44.830;-0.674;2022-12-18T09:04:19;4.90;99.90
35692;DHT22;26978;44.830;-0.674;2022-12-18T09:06:45;4.90;99.90
35692;DHT22;26978;44.830;-0.674;2022-12-18T09:09:11;5.00;99.90
35692;DHT22;26978;44.830;-0.674;2022-12-18T09:11:36;5.00;99.90
35692;DHT22;26978;44.830;-0.674;2022-12-18T09:14:02;5.00;99.90
35692;DHT22;26978;44.830;-0.674;2022-12-18T09:16:28;5.00;99.90
35692;DHT22;26978;44.830;-0.674;2022-12-18T09:18:54;5.10;99.90
35692;DHT22;26978;44.830;-0.674;2022-12-18T09:21:25;5.10;99.90
35692;DHT22;26978;44.830;-0.674;2022-12-18T09:23:51;5.10;99.90
35692;DHT22;26978;44.830;-0.674;2022-12-18T09:26:17;5.10;99.90
35692;DHT22;26978;44.830;-0.674;2022-12-18T09:28:42;5.10;99.90
35692;DHT22;26978;44.830;-0.674;2022-12-18T09:31:08;5.20;99.90
35692;DHT22;26978;44.830;-0.674;2022-12-18T09:33:35;5.30;99.90
35692;DHT22;26978;44.830;-0.674;2022-12-18T09:36:03;5.40;99.90
35692;DHT22;26978;44.830;-0.674;2022-12-18T09:38:29;5.50;99.90
35692;DHT22;26978;44.830;-0.674;2022-12-18T09:40:56;5.70;99.90
35692;DHT22;26978;44.830;-0.674;2022-12-18T09:43:25;5.80;99.90
35692;DHT22;26978;44.830;-0.674;2022-12-18T09:45:53;5.80;99.90
35692;DHT22;26978;44.830;-0.674;2022-12-18T09:48:28;5.90;99.90
35692;DHT22;26978;44.830;-0.674;2022-12-18T09:50:57;5.90;99.90
35692;DHT22;26978;44.830;-0.674;2022-12-18T09:53:24;5.90;99.90
35692;DHT22;26978;44.830;-0.674;2022-12-18T09:55:51;5.90;99.90
35692;DHT22;26978;44.830;-0.674;2022-12-18T09:58:19;5.90;99.90
35692;DHT22;26978;44.830;-0.674;2022-12-18T10:00:46;6.10;99.90
35692;DHT22;26978;44.830;-0.674;2022-12-18T10:03:13;6.20;99.90
35692;DHT22;26978;44.830;-0.674;2022-12-18T10:05:58;6.40;99.90
35692;DHT22;26978;44.830;-0.674;2022-12-18T10:13:58;6.80;99.90
35692;DHT22;26978;44.830;-0.674;2022-12-18T10:16:29;7.00;99.90
35692;DHT22;26978;44.830;-0.674;2022-12-18T10:21:29;7.00;99.90
35692;DHT22;26978;44.830;-0.674;2022-12-18T10:24:02;7.10;99.90
35692;DHT22;26978;44.830;-0.674;2022-12-18T10:26:29;7.20;99.90
35692;DHT22;26978;44.830;-0.674;2022-12-18T10:28:56;7.30;99.90
35692;DHT22;26978;44.830;-0.674;2022-12-18T10:31:23;7.30;99.90
35692;DHT22;26978;44.830;-0.674;2022-12-18T10:33:49;7.40;99.90
35692;DHT22;26978;44.830;-0.674;2022-12-18T10:36:14;7.50;99.90
35692;DHT22;26978;44.830;-0.674;2022-12-18T10:38:40;7.50;99.90
35692;DHT22;26978;44.830;-0.674;2022-12-18T10:41:13;7.60;99.90
35692;DHT22;26978;44.830;-0.674;2022-12-18T10:46:35;7.90;99.90
35692;DHT22;26978;44.830;-0.674;2022-12-18T10:49:02;8.20;99.90
35692;DHT22;26978;44.830;-0.674;2022-12-18T10:51:32;8.30;99.90
35692;DHT22;26978;44.830;-0.674;2022-12-18T10:54:02;8.60;99.90
35692;DHT22;26978;44.830;-0.674;2022-12-18T10:56:29;8.80;99.90
35692;DHT22;26978;44.830;-0.674;2022-12-18T10:59:14;9.10;99.90
35692;DHT22;26978;44.830;-0.674;2022-12-18T11:01:55;9.20;99.90
35692;DHT22;26978;44.830;-0.674;2022-12-18T11:04:22;9.30;99.90
35692;DHT22;26978;44.830;-0.674;2022-12-18T11:06:52;9.20;99.90
35692;DHT22;26978;44.830;-0.674;2022-12-18T11:09:19;9.30;99.90
35692;DHT22;26978;44.830;-0.674;2022-12-18T11:11:53;9.40;99.90
35692;DHT22;26978;44.830;-0.674;2022-12-18T11:14:21;9.40;99.90
35692;DHT22;26978;44.830;-0.674;2022-12-18T11:16:48;9.40;99.90
35692;DHT22;26978;44.830;-0.674;2022-12-18T11:19:23;9.30;99.90
35692;DHT22;26978;44.830;-0.674;2022-12-18T11:21:51;9.30;99.90
35692;DHT22;26978;44.830;-0.674;2022-12-18T11:24:22;9.30;99.90
35692;DHT22;26978;44.830;-0.674;2022-12-18T11:26:49;9.40;99.90
35692;DHT22;26978;44.830;-0.674;2022-12-18T11:29:22;9.50;99.90
35692;DHT22;26978;44.830;-0.674;2022-12-18T11:31:48;9.60;99.90
35692;DHT22;26978;44.830;-0.674;2022-12-18T11:34:16;9.70;99.90
35692;DHT22;26978;44.830;-0.674;2022-12-18T11:36:46;9.70;99.90
35692;DHT22;26978;44.830;-0.674;2022-12-18T11:39:24;9.80;99.90
35692;DHT22;26978;44.830;-0.674;2022-12-18T11:42:39;9.90;99.90
35692;DHT22;26978;44.830;-0.674;2022-12-18T11:49:40;10.00;99.90
35692;DHT22;26978;44.830;-0.674;2022-12-18T11:52:23;10.10;99.90
35692;DHT22;26978;44.830;-0.674;2022-12-18T11:55:00;10.20;99.90
35692;DHT22;26978;44.830;-0.674;2022-12-18T11:57:32;10.30;99.90
35692;DHT22;26978;44.830;-0.674;2022-12-18T12:02:39;10.50;99.90
35692;DHT22;26978;44.830;-0.674;2022-12-18T12:20:20;11.10;99.90
35692;DHT22;26978;44.830;-0.674;2022-12-18T12:23:08;11.10;99.90
35692;DHT22;26978;44.830;-0.674;2022-12-18T12:28:52;11.10;99.90
35692;DHT22;26978;44.830;-0.674;2022-12-18T12:33:51;11.00;99.90
35692;DHT22;26978;44.830;-0.674;2022-12-18T12:38:55;11.00;99.90
35692;DHT22;26978;44.830;-0.674;2022-12-18T12:41:23;11.00;99.90
35692;DHT22;26978;44.830;-0.674;2022-12-18T12:44:09;10.90;99.90
35692;DHT22;26978;44.830;-0.674;2022-12-18T12:46:39;10.80;99.90
35692;DHT22;26978;44.830;-0.674;2022-12-18T12:49:27;10.90;99.90
35692;DHT22;26978;44.830;-0.674;2022-12-18T12:52:05;11.10;99.90
35692;DHT22;26978;44.830;-0.674;2022-12-18T12:54:32;11.40;99.90
35692;DHT22;26978;44.830;-0.674;2022-12-18T12:57:09;11.50;99.90
35692;DHT22;26978;44.830;-0.674;2022-12-18T12:59:43;11.80;99.90
35692;DHT22;26978;44.830;-0.674;2022-12-18T13:02:15;12.10;99.90
35692;DHT22;26978;44.830;-0.674;2022-12-18T13:10:12;12.50;99.90
35692;DHT22;26978;44.830;-0.674;2022-12-18T13:12:58;12.40;99.90
35692;DHT22;26978;44.830;-0.674;2022-12-18T13:20:41;12.50;99.90
35692;DHT22;26978;44.830;-0.674;2022-12-18T13:25:44;12.60;99.90
35692;DHT22;26978;44.830;-0.674;2022-12-18T13:28:14;12.60;99.90
35692;DHT22;26978;44.830;-0.674;2022-12-18T13:38:21;12.50;99.90
35692;DHT22;26978;44.830;-0.674;2022-12-18T13:45:48;12.70;99.90
35692;DHT22;26978;44.830;-0.674;2022-12-18T13:48:17;12.80;99.90
35692;DHT22;26978;44.830;-0.674;2022-12-18T13:50:47;12.80;99.90
35692;DHT22;26978;44.830;-0.674;2022-12-18T13:53:20;13.00;99.90
35692;DHT22;26978;44.830;-0.674;2022-12-18T13:55:46;13.20;99.90
35692;DHT22;26978;44.830;-0.674;2022-12-18T13:58:12;13.00;99.90
35692;DHT22;26978;44.830;-0.674;2022-12-18T14:00:41;13.00;99.90
35692;DHT22;26978;44.830;-0.674;2022-12-18T14:03:21;13.00;99.90
35692;DHT22;26978;44.830;-0.674;2022-12-18T14:05:48;13.00;99.90
35692;DHT22;26978;44.830;-0.674;2022-12-18T14:08:17;12.90;99.90
35692;DHT22;26978;44.830;-0.674;2022-12-18T14:10:44;12.90;99.90
35692;DHT22;26978;44.830;-0.674;2022-12-18T14:13:10;12.90;99.90
35692;DHT22;26978;44.830;-0.674;2022-12-18T14:15:38;12.80;99.90
35692;DHT22;26978;44.830;-0.674;2022-12-18T14:20:43;12.70;99.90
35692;DHT22;26978;44.830;-0.674;2022-12-18T14:25:56;12.40;99.90
35692;DHT22;26978;44.830;-0.674;2022-12-18T14:28:21;12.20;99.90
35692;DHT22;26978;44.830;-0.674;2022-12-18T14:30:48;12.10;99.90
35692;DHT22;26978;44.830;-0.674;2022-12-18T14:33:18;12.10;99.90
35692;DHT22;26978;44.830;-0.674;2022-12-18T14:36:03;12.00;99.90
35692;DHT22;26978;44.830;-0.674;2022-12-18T14:40:59;11.90;99.90
35692;DHT22;26978;44.830;-0.674;2022-12-18T14:43:25;11.90;99.90
35692;DHT22;26978;44.830;-0.674;2022-12-18T14:45:52;11.90;99.90
35692;DHT22;26978;44.830;-0.674;2022-12-18T14:50:43;11.90;99.90
35692;DHT22;26978;44.830;-0.674;2022-12-18T14:53:19;11.80;99.90
35692;DHT22;26978;44.830;-0.674;2022-12-18T14:55:49;11.90;99.90
35692;DHT22;26978;44.830;-0.674;2022-12-18T14:58:15;12.00;99.90
35692;DHT22;26978;44.830;-0.674;2022-12-18T15:00:41;12.00;99.90
35692;DHT22;26978;44.830;-0.674;2022-12-18T15:03:07;12.30;99.90
35692;DHT22;26978;44.830;-0.674;2022-12-18T15:05:33;12.60;99.90
35692;DHT22;26978;44.830;-0.674;2022-12-18T15:08:00;12.50;99.90
35692;DHT22;26978;44.830;-0.674;2022-12-18T15:10:31;12.50;99.90
35692;DHT22;26978;44.830;-0.674;2022-12-18T15:23:16;12.50;99.90
35692;DHT22;26978;44.830;-0.674;2022-12-18T15:25:42;12.50;99.90
35692;DHT22;26978;44.830;-0.674;2022-12-18T15:28:34;12.70;99.90
35692;DHT22;26978;44.830;-0.674;2022-12-18T15:33:26;12.80;99.90
35692;DHT22;26978;44.830;-0.674;2022-12-18T15:35:56;12.90;99.90
35692;DHT22;26978;44.830;-0.674;2022-12-18T15:38:21;12.80;99.90
35692;DHT22;26978;44.830;-0.674;2022-12-18T15:40:47;12.60;99.90
35692;DHT22;26978;44.830;-0.674;2022-12-18T15:43:12;12.20;99.90
35692;DHT22;26978;44.830;-0.674;2022-12-18T15:45:57;12.00;99.90
35692;DHT22;26978;44.830;-0.674;2022-12-18T15:48:22;11.70;99.90
35692;DHT22;26978;44.830;-0.674;2022-12-18T15:50:51;11.60;99.90
35692;DHT22;26978;44.830;-0.674;2022-12-18T15:53:18;11.50;99.90
35692;DHT22;26978;44.830;-0.674;2022-12-18T15:55:43;11.30;99.90
35692;DHT22;26978;44.830;-0.674;2022-12-18T15:58:28;11.10;99.90
35692;DHT22;26978;44.830;-0.674;2022-12-18T16:00:53;11.00;99.90
35692;DHT22;26978;44.830;-0.674;2022-12-18T16:03:19;10.90;99.90
35692;DHT22;26978;44.830;-0.674;2022-12-18T16:05:45;10.80;99.90
35692;DHT22;26978;44.830;-0.674;2022-12-18T16:08:10;10.70;99.90
35692;DHT22;26978;44.830;-0.674;2022-12-18T16:10:36;10.60;99.90
35692;DHT22;26978;44.830;-0.674;2022-12-18T16:13:01;10.50;99.90
35692;DHT22;26978;44.830;-0.674;2022-12-18T16:15:27;10.40;99.90
35692;DHT22;26978;44.830;-0.674;2022-12-18T16:17:52;10.30;99.90
35692;DHT22;26978;44.830;-0.674;2022-12-18T16:20:21;10.20;99.90
35692;DHT22;26978;44.830;-0.674;2022-12-18T16:22:47;10.20;99.90
35692;DHT22;26978;44.830;-0.674;2022-12-18T16:27:41;10.00;99.90
35692;DHT22;26978;44.830;-0.674;2022-12-18T16:30:19;10.00;99.90
35692;DHT22;26978;44.830;-0.674;2022-12-18T16:32:45;10.00;99.90
35692;DHT22;26978;44.830;-0.674;2022-12-18T16:35:12;10.00;99.90
35692;DHT22;26978;44.830;-0.674;2022-12-18T16:37:38;10.00;99.90
35692;DHT22;26978;44.830;-0.674;2022-12-18T16:40:04;10.00;99.90
35692;DHT22;26978;44.830;-0.674;2022-12-18T16:42:30;10.00;99.90
35692;DHT22;26978;44.830;-0.674;2022-12-18T16:44:56;9.90;99.90
35692;DHT22;26978;44.830;-0.674;2022-12-18T16:47:21;9.90;99.90
35692;DHT22;26978;44.830;-0.674;2022-12-18T16:49:47;9.80;99.90
35692;DHT22;26978;44.830;-0.674;2022-12-18T16:52:15;9.70;99.90
35692;DHT22;26978;44.830;-0.674;2022-12-18T16:54:41;9.70;99.90
35692;DHT22;26978;44.830;-0.674;2022-12-18T16:57:08;9.60;99.90
35692;DHT22;26978;44.830;-0.674;2022-12-18T16:59:33;9.50;99.90
35692;DHT22;26978;44.830;-0.674;2022-12-18T17:01:59;9.50;99.90
35692;DHT22;26978;44.830;-0.674;2022-12-18T17:04:24;9.50;99.90
35692;DHT22;26978;44.830;-0.674;2022-12-18T17:06:50;9.50;99.90
35692;DHT22;26978;44.830;-0.674;2022-12-18T17:09:18;9.50;99.90
35692;DHT22;26978;44.830;-0.674;2022-12-18T17:11:47;9.40;99.90
35692;DHT22;26978;44.830;-0.674;2022-12-18T17:14:14;9.50;99.90
35692;DHT22;26978;44.830;-0.674;2022-12-18T17:16:40;9.40;99.90
35692;DHT22;26978;44.830;-0.674;2022-12-18T17:19:05;9.50;99.90
35692;DHT22;26978;44.830;-0.674;2022-12-18T17:21:31;9.50;99.90
35692;DHT22;26978;44.830;-0.674;2022-12-18T17:24:00;9.50;99.90
35692;DHT22;26978;44.830;-0.674;2022-12-18T17:26:26;9.60;99.90